Time;durP1;ratioP1;P1;durP2;ratioP2;P2;SDS_P1;SDS_P2;PMS_P1;PMS_P2;Temp;Humidity;BMP_temperature;BMP_pressure;BME280_temperature;BME280_humidity;BME280_pressure;Samples;Min_cycle;Max_cycle;Signal;HPM_P1;HPM_P2
2023/06/29 00:02:52;;;;;;;5.38;4.28;;;16.90;99.90;;;;;;10350096;28;20239;-87
2023/06/29 00:07:58;;;;;;;12.27;6.38;;;17.00;99.90;;;;;;10349784;28;20301;-88
2023/06/29 00:13:01;;;;;;;7.30;6.50;;;16.90;99.90;;;;;;10334543;28;20308;-87
2023/06/29 00:18:03;;;;;;;8.32;6.68;;;16.70;99.90;;;;;;10306800;28;20280;-87
2023/06/29 00:23:06;;;;;;;8.23;5.63;;;16.30;99.90;;;;;;10362764;28;20278;-88
2023/06/29 00:28:09;;;;;;;6.05;5.45;;;16.00;99.90;;;;;;10327353;28;20244;-87
2023/06/29 00:33:11;;;;;;;7.03;6.07;;;15.90;99.90;;;;;;10345201;28;20698;-87
2023/06/29 00:38:14;;;;;;;13.98;7.90;;;16.00;99.90;;;;;;10326120;28;20311;-87
2023/06/29 00:43:17;;;;;;;9.68;6.70;;;15.50;99.90;;;;;;10321394;28;20298;-87
2023/06/29 00:48:20;;;;;;;7.85;6.35;;;15.40;99.90;;;;;;10314226;28;20240;-87
2023/06/29 00:53:23;;;;;;;8.77;6.90;;;15.20;99.90;;;;;;10338509;28;20662;-87
2023/06/29 00:58:26;;;;;;;8.13;7.32;;;15.20;99.90;;;;;;10324648;28;20350;-87
2023/06/29 01:03:30;;;;;;;7.72;7.03;;;15.30;99.90;;;;;;10316079;28;20723;-87
2023/06/29 01:08:40;;;;;;;8.50;7.63;;;15.40;99.90;;;;;;10340270;28;20237;-87
2023/06/29 01:13:44;;;;;;;9.18;7.70;;;15.30;99.90;;;;;;10331686;28;20695;-87
2023/06/29 01:18:48;;;;;;;9.70;7.90;;;15.20;99.90;;;;;;10338700;28;20323;-87
2023/06/29 01:23:55;;;;;;;12.48;8.25;;;15.20;99.90;;;;;;10341480;28;20239;-87
2023/06/29 01:28:58;;;;;;;9.38;7.82;;;15.00;99.90;;;;;;10347261;28;20244;-87
2023/06/29 01:34:01;;;;;;;7.97;6.75;;;15.10;99.90;;;;;;10348153;28;20256;-87
2023/06/29 01:39:13;;;;;;;9.63;7.20;;;14.90;99.90;;;;;;10320723;28;20273;-87
2023/06/29 01:44:16;;;;;;;9.35;7.70;;;14.70;99.90;;;;;;10302105;28;20688;-87
2023/06/29 01:49:20;;;;;;;7.28;6.18;;;14.50;99.90;;;;;;10331035;28;20264;-87
2023/06/29 01:54:23;;;;;;;5.82;4.60;;;14.60;99.90;;;;;;10349327;28;20240;-87
2023/06/29 01:59:26;;;;;;;8.95;6.90;;;14.80;99.90;;;;;;10365869;28;20260;-87
2023/06/29 02:04:29;;;;;;;5.78;5.25;;;14.80;99.90;;;;;;10319987;28;20284;-87
2023/06/29 02:09:31;;;;;;;9.85;6.57;;;14.90;99.90;;;;;;10308775;28;20267;-87
2023/06/29 02:14:34;;;;;;;10.20;7.57;;;15.20;99.90;;;;;;10347244;28;20294;-87
2023/06/29 02:19:36;;;;;;;11.80;7.13;;;15.10;99.90;;;;;;10346986;28;20263;-87
2023/06/29 02:24:39;;;;;;;8.68;6.18;;;15.00;99.90;;;;;;10365158;28;20287;-87
2023/06/29 02:29:42;;;;;;;11.70;7.53;;;14.70;99.90;;;;;;10352704;28;20303;-87
2023/06/29 02:34:44;;;;;;;8.63;6.30;;;14.60;99.90;;;;;;10361540;28;20278;-87
2023/06/29 02:39:47;;;;;;;8.52;7.28;;;14.60;99.90;;;;;;10343697;28;20260;-87
2023/06/29 02:44:50;;;;;;;8.02;6.45;;;14.60;99.90;;;;;;10366513;28;20677;-87
2023/06/29 02:49:54;;;;;;;9.90;7.00;;;14.60;99.90;;;;;;10354311;28;20244;-87
2023/06/29 02:54:58;;;;;;;7.30;6.50;;;14.40;99.90;;;;;;10322418;28;20668;-88
2023/06/29 03:00:00;;;;;;;8.52;6.72;;;14.30;99.90;;;;;;10323682;28;20291;-87
2023/06/29 03:05:03;;;;;;;11.07;8.02;;;14.30;99.90;;;;;;10355669;28;20208;-87
2023/06/29 03:10:07;;;;;;;8.40;6.90;;;14.20;99.90;;;;;;10314049;28;20268;-87
2023/06/29 03:15:10;;;;;;;9.10;7.22;;;14.30;99.90;;;;;;10348000;28;20647;-87
2023/06/29 03:20:13;;;;;;;11.98;8.07;;;14.40;99.90;;;;;;10358351;28;20295;-87
2023/06/29 03:25:16;;;;;;;18.63;8.70;;;14.50;99.90;;;;;;10370777;28;20612;-88
2023/06/29 03:30:18;;;;;;;9.25;7.38;;;14.40;99.90;;;;;;10322243;28;20319;-87
2023/06/29 03:35:21;;;;;;;8.52;7.68;;;14.30;99.90;;;;;;10353428;28;20302;-88
2023/06/29 03:40:24;;;;;;;11.35;6.60;;;14.30;99.90;;;;;;10330168;28;20256;-87
2023/06/29 03:45:26;;;;;;;10.23;7.53;;;14.40;99.90;;;;;;10349690;28;20243;-87
2023/06/29 03:50:28;;;;;;;8.27;6.97;;;14.50;99.90;;;;;;10353292;28;20652;-86
2023/06/29 03:55:31;;;;;;;7.43;6.72;;;14.60;99.90;;;;;;10325047;28;20252;-87
2023/06/29 04:00:34;;;;;;;14.05;8.10;;;14.80;99.90;;;;;;10341901;28;20329;-87
2023/06/29 04:05:36;;;;;;;8.88;7.00;;;14.70;99.90;;;;;;10319806;28;20279;-87
2023/06/29 04:10:39;;;;;;;7.05;6.38;;;14.70;99.90;;;;;;10330743;28;20295;-87
2023/06/29 04:15:41;;;;;;;5.13;3.83;;;15.10;99.90;;;;;;10351042;28;20244;-87
2023/06/29 04:20:45;;;;;;;8.95;6.55;;;15.30;99.90;;;;;;10357131;28;20307;-87
2023/06/29 04:25:47;;;;;;;11.48;7.38;;;15.70;99.90;;;;;;10343768;28;20236;-87
2023/06/29 04:30:50;;;;;;;5.68;5.18;;;15.60;99.90;;;;;;10328064;28;20244;-87
2023/06/29 04:35:53;;;;;;;8.45;5.95;;;16.10;99.90;;;;;;10341484;28;20287;-87
2023/06/29 04:41:03;;;;;;;4.13;3.80;;;16.20;99.90;;;;;;10338798;28;20695;-87
2023/06/29 04:46:06;;;;;;;5.10;4.60;;;16.60;99.90;;;;;;10328936;28;20291;-87
2023/06/29 04:51:09;;;;;;;4.68;4.28;;;17.00;99.90;;;;;;10318634;28;20247;-87
2023/06/29 04:56:12;;;;;;;3.80;3.50;;;17.40;99.90;;;;;;10305075;28;20240;-87
2023/06/29 05:01:15;;;;;;;4.20;3.80;;;17.90;99.90;;;;;;10327235;28;20295;-88
2023/06/29 05:06:17;;;;;;;7.63;4.70;;;17.90;99.90;;;;;;10315010;28;20271;-88
2023/06/29 05:11:20;;;;;;;11.48;5.45;;;17.90;99.90;;;;;;10336685;28;20303;-89
2023/06/29 05:16:22;;;;;;;8.43;4.78;;;18.00;99.90;;;;;;10329104;28;20240;-88
2023/06/29 05:21:27;;;;;;;8.98;4.20;;;18.10;99.90;;;;;;10328750;28;20276;-87
2023/06/29 05:26:29;;;;;;;6.28;3.47;;;18.00;99.90;;;;;;10365138;28;20240;-88
2023/06/29 05:31:35;;;;;;;7.22;3.80;;;18.10;99.90;;;;;;10323329;28;20702;-87
2023/06/29 05:36:37;;;;;;;10.05;3.78;;;18.20;99.90;;;;;;10329702;28;20237;-88
2023/06/29 05:41:40;;;;;;;3.88;3.33;;;18.20;99.90;;;;;;10327133;28;20253;-87
2023/06/29 05:46:43;;;;;;;3.67;3.35;;;18.30;99.90;;;;;;10328927;28;20698;-87
2023/06/29 05:51:45;;;;;;;8.45;3.83;;;18.40;99.90;;;;;;10326858;28;20271;-88
2023/06/29 05:56:48;;;;;;;10.63;3.78;;;18.60;99.90;;;;;;10327311;28;20252;-87
2023/06/29 06:01:50;;;;;;;7.97;3.20;;;18.60;99.90;;;;;;10323666;28;20290;-88
2023/06/29 06:06:53;;;;;;;5.43;3.42;;;18.80;99.90;;;;;;10333455;28;20718;-87
2023/06/29 06:11:55;;;;;;;7.18;4.00;;;18.70;99.90;;;;;;10326728;28;20261;-88
2023/06/29 06:16:58;;;;;;;5.05;3.63;;;18.70;99.90;;;;;;10323439;28;20245;-88
2023/06/29 06:22:01;;;;;;;6.18;3.78;;;18.80;99.90;;;;;;10328846;28;20652;-86
2023/06/29 06:27:03;;;;;;;5.15;3.13;;;19.10;99.90;;;;;;10308443;28;20228;-86
2023/06/29 06:32:06;;;;;;;3.97;3.00;;;19.30;99.90;;;;;;10321690;28;20240;-86
2023/06/29 06:37:09;;;;;;;6.30;3.20;;;19.60;99.90;;;;;;10325854;28;20248;-86
2023/06/29 06:42:12;;;;;;;4.55;2.90;;;19.70;99.90;;;;;;10324888;28;20679;-86
2023/06/29 06:47:17;;;;;;;4.32;3.08;;;19.60;99.90;;;;;;10310181;28;20768;-86
2023/06/29 06:52:19;;;;;;;4.35;2.88;;;19.70;99.90;;;;;;10331371;28;20236;-86
2023/06/29 06:57:22;;;;;;;3.63;2.92;;;19.80;99.90;;;;;;10336648;28;20248;-86
2023/06/29 07:02:25;;;;;;;5.03;3.30;;;20.10;99.90;;;;;;10286866;28;20400;-87
2023/06/29 07:07:27;;;;;;;5.35;3.20;;;20.30;99.90;;;;;;10269222;28;20725;-87
2023/06/29 07:12:30;;;;;;;3.90;2.63;;;20.50;99.90;;;;;;10328933;28;20260;-87
2023/06/29 07:17:33;;;;;;;4.45;3.30;;;20.80;99.90;;;;;;10307706;28;20311;-87
2023/06/29 07:22:36;;;;;;;6.28;2.97;;;21.40;99.90;;;;;;10332750;28;20264;-87
2023/06/29 07:27:42;;;;;;;4.90;3.38;;;21.30;96.40;;;;;;10342951;28;20244;-87
2023/06/29 07:32:44;;;;;;;3.92;2.70;;;21.40;97.30;;;;;;10369901;28;20310;-87
2023/06/29 07:37:47;;;;;;;7.35;3.10;;;21.50;96.00;;;;;;10357491;28;20243;-87
2023/06/29 07:42:50;;;;;;;6.03;3.20;;;21.40;99.20;;;;;;10371695;28;20272;-87
2023/06/29 07:47:53;;;;;;;5.68;3.53;;;21.70;99.30;;;;;;10348878;28;20240;-87
2023/06/29 07:52:56;;;;;;;4.85;3.10;;;21.90;99.20;;;;;;10335986;28;20294;-87
2023/06/29 07:57:58;;;;;;;3.40;3.00;;;22.10;98.50;;;;;;10371915;28;20306;-87
2023/06/29 08:03:04;;;;;;;3.47;3.17;;;22.20;97.90;;;;;;10371114;28;20271;-87
2023/06/29 08:08:10;;;;;;;3.75;3.38;;;22.30;95.80;;;;;;10341281;28;20240;-86
2023/06/29 08:13:13;;;;;;;6.78;3.30;;;22.40;96.50;;;;;;10327604;28;20647;-86
2023/06/29 08:18:16;;;;;;;5.57;4.07;;;22.40;97.00;;;;;;10358766;28;20248;-86
2023/06/29 08:23:18;;;;;;;2.83;2.60;;;22.50;92.20;;;;;;10356853;28;20264;-86
2023/06/29 08:28:21;;;;;;;3.63;3.33;;;22.40;90.90;;;;;;10330373;28;20637;-86
2023/06/29 08:33:23;;;;;;;5.05;2.33;;;22.40;90.70;;;;;;10329353;28;20996;-86
2023/06/29 08:38:26;;;;;;;4.00;2.53;;;22.40;88.60;;;;;;10328319;28;20249;-86
2023/06/29 08:43:29;;;;;;;4.20;2.90;;;22.40;91.80;;;;;;10351410;28;20314;-86
2023/06/29 08:48:32;;;;;;;5.07;2.75;;;22.50;90.00;;;;;;10360841;23;20292;-85
2023/06/29 08:53:36;;;;;;;5.00;2.40;;;22.30;90.80;;;;;;10328767;28;20267;-85
2023/06/29 08:58:39;;;;;;;4.15;2.63;;;22.40;90.80;;;;;;9637944;28;10000701;-83
2023/06/29 09:03:42;;;;;;;4.13;2.75;;;22.60;91.30;;;;;;10324848;28;20265;-83
2023/06/29 09:08:45;;;;;;;3.58;2.20;;;22.70;86.60;;;;;;10306346;28;20245;-83
2023/06/29 09:13:49;;;;;;;3.00;2.20;;;22.70;86.70;;;;;;10326019;28;20245;-83
2023/06/29 09:18:54;;;;;;;6.43;2.03;;;22.80;88.20;;;;;;9986785;28;10000783;-89
2023/06/29 09:24:00;;;;;;;2.42;1.77;;;22.80;78.90;;;;;;10356074;28;20271;-84
2023/06/29 09:29:03;;;;;;;3.63;2.47;;;22.70;72.90;;;;;;10353050;28;20307;-84
2023/06/29 09:34:22;;;;;;;2.15;1.92;;;22.70;78.60;;;;;;10350359;28;20726;-84
2023/06/29 09:39:26;;;;;;;4.55;1.60;;;22.70;80.50;;;;;;10361334;28;20723;-83
2023/06/29 09:44:29;;;;;;;4.35;2.13;;;22.70;80.90;;;;;;10353624;28;20236;-83
2023/06/29 09:49:43;;;;;;;2.38;1.95;;;22.90;73.60;;;;;;10353131;28;20287;-82
2023/06/29 09:54:46;;;;;;;3.85;2.08;;;23.10;76.20;;;;;;10353331;28;20231;-81
2023/06/29 09:59:49;;;;;;;1.65;1.52;;;23.30;81.30;;;;;;10353320;28;20264;-85
2023/06/29 10:04:52;;;;;;;2.55;1.85;;;23.50;79.10;;;;;;10354492;28;20232;-83
2023/06/29 10:09:58;;;;;;;4.22;2.30;;;23.40;75.90;;;;;;10331463;28;20264;-82
2023/06/29 10:15:08;;;;;;;2.55;1.83;;;23.40;78.30;;;;;;10334006;28;20240;-82
2023/06/29 10:20:13;;;;;;;2.55;1.90;;;23.50;67.50;;;;;;10354433;28;20267;-83
2023/06/29 10:25:19;;;;;;;1.73;1.38;;;23.70;81.90;;;;;;10332679;28;20236;-82
2023/06/29 10:30:22;;;;;;;2.28;1.80;;;23.80;80.70;;;;;;10326357;28;20305;-82
2023/06/29 10:35:25;;;;;;;1.77;1.63;;;23.60;84.10;;;;;;10336885;28;20251;-83
2023/06/29 10:40:28;;;;;;;4.43;2.10;;;23.70;86.60;;;;;;10363009;28;20286;-82
2023/06/29 10:45:32;;;;;;;2.28;1.83;;;23.90;75.70;;;;;;10326262;28;20307;-83
2023/06/29 10:50:36;;;;;;;2.20;1.90;;;24.00;82.90;;;;;;10323764;28;20291;-83
2023/06/29 10:55:50;;;;;;;4.25;1.92;;;23.80;77.10;;;;;;10325719;28;20237;-83
2023/06/29 11:00:54;;;;;;;3.05;1.65;;;23.70;72.80;;;;;;10311415;28;20260;-83
2023/06/29 11:05:57;;;;;;;3.72;1.67;;;23.60;79.70;;;;;;10329184;28;20699;-83
2023/06/29 11:11:16;;;;;;;2.60;1.50;;;23.70;55.60;;;;;;10372423;28;20251;-83
2023/06/29 11:16:18;;;;;;;2.25;1.60;;;23.40;66.80;;;;;;10344756;28;20298;-84
2023/06/29 11:21:21;;;;;;;1.88;1.70;;;23.70;65.70;;;;;;9658309;28;10000687;-83
2023/06/29 11:26:26;;;;;;;2.40;1.80;;;23.80;80.00;;;;;;10338440;28;20243;-84
2023/06/29 11:31:29;;;;;;;2.28;1.92;;;23.70;74.00;;;;;;10351671;28;20236;-84
2023/06/29 11:36:33;;;;;;;2.33;1.80;;;23.70;76.20;;;;;;10368506;28;20244;-83
2023/06/29 11:41:37;;;;;;;3.55;1.85;;;23.50;74.80;;;;;;10322300;28;20312;-83
2023/06/29 11:46:40;;;;;;;1.92;1.73;;;23.50;73.00;;;;;;10346981;28;20730;-82
2023/06/29 11:51:42;;;;;;;3.88;2.10;;;23.90;82.70;;;;;;10360093;28;20285;-82
2023/06/29 11:56:45;;;;;;;2.90;2.00;;;23.70;76.10;;;;;;10366606;28;20294;-82
2023/06/29 12:01:48;;;;;;;3.50;1.80;;;23.80;69.30;;;;;;10364701;28;20315;-83
2023/06/29 12:06:51;;;;;;;2.28;1.80;;;23.90;69.50;;;;;;10348403;28;20660;-83
2023/06/29 12:12:02;;;;;;;1.75;1.65;;;24.10;74.70;;;;;;10366980;28;20321;-82
2023/06/29 12:17:05;;;;;;;5.07;1.45;;;24.20;69.20;;;;;;10330637;28;20347;-82
2023/06/29 12:22:15;;;;;;;2.15;1.83;;;23.90;54.60;;;;;;10320338;28;20268;-83
2023/06/29 12:27:17;;;;;;;1.80;1.40;;;23.90;58.30;;;;;;10357277;28;20267;-84
2023/06/29 12:32:23;;;;;;;4.68;2.53;;;24.00;67.20;;;;;;10362098;28;20239;-86
2023/06/29 12:37:26;;;;;;;2.17;1.92;;;23.90;66.80;;;;;;10351917;28;20598;-86
2023/06/29 12:42:28;;;;;;;2.15;1.95;;;24.30;76.60;;;;;;10369907;28;20314;-85
2023/06/29 12:47:33;;;;;;;4.05;2.38;;;24.60;56.60;;;;;;10365333;28;20273;-83
2023/06/29 12:52:36;;;;;;;2.78;1.90;;;24.70;53.80;;;;;;10349050;28;20244;-83
2023/06/29 12:57:39;;;;;;;2.42;1.90;;;24.70;58.50;;;;;;10348841;28;20244;-84
2023/06/29 13:02:41;;;;;;;1.98;1.88;;;24.80;59.80;;;;;;10328279;28;20718;-84
2023/06/29 13:07:47;;;;;;;2.22;1.90;;;24.90;76.00;;;;;;10349768;28;20236;-84
2023/06/29 13:12:50;;;;;;;2.25;1.88;;;24.70;67.10;;;;;;10339466;28;20235;-83
2023/06/29 13:17:53;;;;;;;1.77;1.33;;;24.60;69.70;;;;;;10359854;28;20248;-84
2023/06/29 13:22:55;;;;;;;2.10;1.23;;;24.70;64.10;;;;;;10344700;28;20264;-83
2023/06/29 13:27:58;;;;;;;4.70;1.90;;;24.80;69.20;;;;;;10335185;28;20687;-87
2023/06/29 13:33:00;;;;;;;2.55;1.77;;;24.80;63.80;;;;;;10332148;28;20259;-87
2023/06/29 13:38:03;;;;;;;1.95;1.40;;;24.90;73.50;;;;;;10357387;28;20239;-83
2023/06/29 13:43:06;;;;;;;4.32;2.00;;;24.80;58.20;;;;;;9963054;28;9999803;-82
2023/06/29 13:48:08;;;;;;;3.08;1.67;;;24.40;46.50;;;;;;10338100;28;20721;-83
2023/06/29 13:53:14;;;;;;;4.53;1.40;;;24.40;48.30;;;;;;10322804;28;20303;-83
2023/06/29 13:58:16;;;;;;;4.70;2.35;;;24.30;45.50;;;;;;10337708;28;20355;-83
2023/06/29 14:03:19;;;;;;;2.72;2.17;;;24.30;50.10;;;;;;10322901;28;20670;-83
2023/06/29 14:08:22;;;;;;;3.75;2.03;;;24.40;45.30;;;;;;10305118;28;20286;-83
2023/06/29 14:13:26;;;;;;;1.77;1.55;;;24.50;50.20;;;;;;10321309;28;20275;-83
2023/06/29 14:18:29;;;;;;;1.90;1.80;;;24.20;46.40;;;;;;10336603;28;20240;-83
2023/06/29 14:23:32;;;;;;;1.80;1.60;;;24.20;49.50;;;;;;10336081;28;20260;-83
2023/06/29 14:28:35;;;;;;;2.78;1.83;;;24.30;46.60;;;;;;10321625;28;20314;-84
2023/06/29 14:33:38;;;;;;;2.92;1.30;;;24.20;45.30;;;;;;10322169;28;20648;-83
2023/06/29 14:38:41;;;;;;;6.43;1.98;;;24.00;44.40;;;;;;10337567;28;20244;-83
2023/06/29 14:43:43;;;;;;;2.38;1.73;;;24.20;45.40;;;;;;10347078;28;20856;-85
2023/06/29 14:48:46;;;;;;;4.65;1.90;;;24.40;46.30;;;;;;9977374;28;10000003;-84
2023/06/29 14:53:49;;;;;;;6.15;2.05;;;24.40;44.20;;;;;;10329242;28;20483;-83
2023/06/29 14:58:51;;;;;;;3.80;2.65;;;24.30;37.50;;;;;;10344383;28;20237;-83
2023/06/29 15:03:54;;;;;;;2.03;1.70;;;24.50;48.40;;;;;;10329749;28;20260;-83
2023/06/29 15:08:57;;;;;;;1.95;1.75;;;24.50;46.90;;;;;;10325857;28;20288;-84
2023/06/29 15:13:59;;;;;;;5.47;1.50;;;24.60;50.50;;;;;;10336271;28;20244;-84
2023/06/29 15:19:02;;;;;;;5.45;1.27;;;24.40;36.70;;;;;;10341992;28;20228;-85
2023/06/29 15:24:05;;;;;;;3.63;1.48;;;24.60;35.60;;;;;;10352154;28;20286;-85
2023/06/29 15:29:07;;;;;;;4.03;1.38;;;24.70;36.60;;;;;;10356087;28;20236;-84
2023/06/29 15:34:10;;;;;;;2.40;1.65;;;24.80;37.60;;;;;;10346880;28;20294;-84
2023/06/29 15:39:13;;;;;;;4.20;1.77;;;25.00;29.10;;;;;;10338968;28;20676;-88
2023/06/29 15:44:15;;;;;;;2.95;1.17;;;25.10;31.40;;;;;;10331257;28;20248;-87
2023/06/29 15:49:18;;;;;;;3.13;1.70;;;25.30;32.70;;;;;;10331947;28;20307;-85
2023/06/29 15:54:20;;;;;;;1.55;1.30;;;25.40;34.10;;;;;;10353822;28;20258;-85
2023/06/29 15:59:23;;;;;;;3.63;1.70;;;25.40;39.30;;;;;;10324161;28;20243;-87
2023/06/29 16:04:25;;;;;;;4.60;1.50;;;25.30;35.00;;;;;;10336422;28;20256;-85
2023/06/29 16:09:32;;;;;;;2.88;2.30;;;25.40;40.30;;;;;;10331224;28;20236;-86
2023/06/29 16:14:34;;;;;;;1.55;1.30;;;25.40;43.60;;;;;;10334334;28;20248;-85
2023/06/29 16:19:37;;;;;;;2.55;1.80;;;25.40;46.50;;;;;;10351804;28;20247;-86
2023/06/29 16:24:39;;;;;;;2.45;1.33;;;25.30;30.10;;;;;;10337763;28;20260;-86
2023/06/29 16:29:42;;;;;;;1.70;1.50;;;25.10;28.40;;;;;;10331002;28;20307;-86
2023/06/29 16:34:44;;;;;;;4.93;1.85;;;25.00;29.00;;;;;;10330070;28;20244;-86
2023/06/29 16:39:47;;;;;;;2.47;1.42;;;24.80;30.50;;;;;;10330662;28;20309;-86
2023/06/29 16:44:49;;;;;;;3.22;1.30;;;24.70;32.90;;;;;;10313112;28;20249;-85
2023/06/29 16:49:52;;;;;;;2.55;1.40;;;25.00;32.80;;;;;;10312864;28;20260;-86
2023/06/29 16:54:57;;;;;;;1.52;1.35;;;25.20;33.90;;;;;;10312020;28;20241;-85
2023/06/29 16:59:59;;;;;;;4.57;1.52;;;25.40;35.30;;;;;;10329408;28;20248;-84
2023/06/29 17:05:02;;;;;;;3.25;1.20;;;25.40;30.90;;;;;;10311218;28;20280;-84
2023/06/29 17:10:05;;;;;;;1.60;1.38;;;25.40;33.20;;;;;;10329340;28;20268;-84
2023/06/29 17:15:08;;;;;;;2.80;1.30;;;25.30;29.70;;;;;;10358739;28;20294;-88
2023/06/29 17:20:12;;;;;;;1.50;1.20;;;25.20;27.70;;;;;;10323239;28;20295;-86
2023/06/29 17:25:15;;;;;;;1.50;1.23;;;25.20;28.00;;;;;;10327694;28;20268;-87
2023/06/29 17:30:17;;;;;;;1.70;1.55;;;25.20;28.60;;;;;;10356933;28;20686;-87
2023/06/29 17:35:19;;;;;;;4.85;1.50;;;25.10;29.40;;;;;;10310677;28;20236;-87
2023/06/29 17:40:22;;;;;;;2.97;2.00;;;25.00;26.40;;;;;;10313171;28;20233;-84
2023/06/29 17:45:28;;;;;;;5.38;2.30;;;24.90;28.10;;;;;;10310552;28;20268;-84
2023/06/29 17:50:30;;;;;;;2.60;1.90;;;24.80;27.60;;;;;;10294420;28;20228;-84
2023/06/29 17:55:33;;;;;;;4.22;2.10;;;24.70;28.30;;;;;;10327190;28;20626;-86
2023/06/29 18:00:35;;;;;;;3.80;2.30;;;24.50;28.50;;;;;;10327195;28;20326;-88
2023/06/29 18:05:50;;;;;;;6.30;2.55;;;24.40;29.40;;;;;;10326834;28;20260;-88
2023/06/29 18:10:53;;;;;;;4.63;2.20;;;24.40;29.80;;;;;;10326186;28;20236;-87
2023/06/29 18:15:55;;;;;;;4.32;2.13;;;24.20;31.20;;;;;;10326487;28;20240;-88
2023/06/29 18:20:58;;;;;;;3.75;2.55;;;24.00;32.60;;;;;;10326753;28;20268;-87
2023/06/29 18:26:01;;;;;;;4.28;2.55;;;23.70;35.10;;;;;;10325965;28;20252;-87
2023/06/29 18:31:04;;;;;;;8.70;2.40;;;23.50;36.90;;;;;;10326332;28;20298;-87
2023/06/29 18:36:07;;;;;;;3.97;2.63;;;23.20;41.80;;;;;;10325363;28;20765;-87
2023/06/29 18:41:29;;;;;;;3.65;2.10;;;22.70;51.00;;;;;;10325193;28;20294;-88
2023/06/29 18:46:38;;;;;;;9.32;3.33;;;22.10;56.70;;;;;;10327341;28;20267;-84
2023/06/29 18:51:41;;;;;;;4.25;2.80;;;21.80;64.60;;;;;;10338990;28;20287;-83
2023/06/29 18:56:46;;;;;;;5.78;3.45;;;21.70;66.20;;;;;;10329944;28;20244;-87
2023/06/29 19:01:48;;;;;;;5.70;2.63;;;21.50;73.00;;;;;;10343942;28;20264;-85
2023/06/29 19:06:51;;;;;;;7.43;2.80;;;21.20;77.70;;;;;;10326149;28;20291;-86
2023/06/29 19:11:54;;;;;;;9.63;3.58;;;21.00;86.90;;;;;;10325214;28;20248;-85
2023/06/29 19:16:57;;;;;;;8.88;3.88;;;20.80;92.30;;;;;;10298719;28;20373;-84
2023/06/29 19:21:59;;;;;;;6.18;3.88;;;20.40;92.50;;;;;;10324213;28;20256;-82
2023/06/29 19:27:05;;;;;;;7.82;3.22;;;20.20;92.50;;;;;;10337255;28;20307;-84
2023/06/29 19:32:08;;;;;;;6.88;3.15;;;20.00;94.80;;;;;;10330806;28;20287;-82
2023/06/29 19:37:11;;;;;;;10.15;3.72;;;19.80;96.30;;;;;;10332128;28;20659;-84
2023/06/29 19:42:14;;;;;;;5.93;3.15;;;19.60;96.80;;;;;;10329804;28;20651;-82
2023/06/29 19:47:16;;;;;;;6.47;3.42;;;19.50;98.00;;;;;;10329810;28;20311;-85
2023/06/29 19:52:19;;;;;;;7.88;3.85;;;19.50;98.50;;;;;;10330602;28;20240;-86
2023/06/29 19:57:22;;;;;;;8.45;4.32;;;19.20;99.60;;;;;;10331692;28;20232;-83
2023/06/29 20:02:24;;;;;;;13.07;3.80;;;19.30;99.90;;;;;;10330498;28;20323;-84
2023/06/29 20:07:27;;;;;;;5.78;3.00;;;19.10;99.90;;;;;;10331732;28;20303;-83
2023/06/29 20:12:30;;;;;;;8.07;4.22;;;19.10;99.90;;;;;;10330702;28;20252;-83
2023/06/29 20:17:34;;;;;;;6.15;3.55;;;19.10;99.90;;;;;;10321077;28;20642;-86
2023/06/29 20:22:37;;;;;;;9.15;4.05;;;18.70;99.90;;;;;;10330688;28;20670;-82
2023/06/29 20:27:39;;;;;;;9.25;3.72;;;18.70;99.90;;;;;;10330731;28;20248;-82
2023/06/29 20:32:42;;;;;;;8.88;3.22;;;18.40;99.90;;;;;;10329063;28;20252;-84
2023/06/29 20:37:44;;;;;;;5.68;3.28;;;18.10;99.90;;;;;;10327502;28;20272;-82
2023/06/29 20:42:47;;;;;;;8.85;3.90;;;18.00;99.90;;;;;;10322684;28;20326;-83
2023/06/29 20:47:49;;;;;;;4.63;2.72;;;17.90;99.90;;;;;;10329684;28;20323;-82
2023/06/29 20:52:52;;;;;;;6.35;3.85;;;17.90;99.90;;;;;;10330166;28;20306;-82
2023/06/29 20:57:58;;;;;;;6.70;3.60;;;18.00;99.90;;;;;;10328432;28;20240;-82
2023/06/29 21:03:00;;;;;;;7.60;3.60;;;18.00;99.90;;;;;;10328432;28;20288;-82
2023/06/29 21:08:03;;;;;;;5.68;3.83;;;17.90;99.90;;;;;;10328947;28;20295;-83
2023/06/29 21:13:06;;;;;;;3.67;3.38;;;17.60;99.90;;;;;;10328512;28;20299;-83
2023/06/29 21:18:09;;;;;;;6.10;3.30;;;17.80;99.90;;;;;;10326364;28;20368;-83
2023/06/29 21:23:12;;;;;;;6.10;2.92;;;17.80;99.90;;;;;;10336461;28;20300;-83
2023/06/29 21:28:15;;;;;;;4.45;3.30;;;17.70;99.90;;;;;;10326095;28;20220;-83
2023/06/29 21:33:18;;;;;;;8.10;3.33;;;17.60;99.90;;;;;;10362573;28;20302;-83
2023/06/29 21:38:20;;;;;;;4.47;3.35;;;17.50;99.90;;;;;;10322725;28;20679;-82
2023/06/29 21:43:27;;;;;;;13.40;3.95;;;17.20;99.90;;;;;;10339812;28;20362;-82
2023/06/29 21:48:31;;;;;;;9.63;3.65;;;17.00;99.90;;;;;;10337499;28;20267;-83
2023/06/29 21:53:33;;;;;;;6.57;2.95;;;16.90;99.90;;;;;;10336474;28;20268;-83
2023/06/29 21:58:36;;;;;;;12.07;3.47;;;16.90;99.90;;;;;;10324749;28;20648;-84
2023/06/29 22:03:38;;;;;;;7.00;3.47;;;16.80;99.90;;;;;;10330482;28;20264;-84
2023/06/29 22:08:41;;;;;;;12.57;3.72;;;16.60;99.90;;;;;;10341814;28;20283;-84
2023/06/29 22:13:44;;;;;;;4.68;2.22;;;16.60;99.90;;;;;;10325158;28;20272;-84
2023/06/29 22:18:50;;;;;;;5.28;3.72;;;16.80;99.90;;;;;;10334065;28;20248;-82
2023/06/29 22:23:55;;;;;;;4.10;2.75;;;17.00;99.90;;;;;;10334481;28;20271;-83
2023/06/29 22:28:58;;;;;;;10.35;3.70;;;17.10;99.90;;;;;;10327742;28;20608;-84
2023/06/29 22:34:01;;;;;;;2.58;2.38;;;17.10;99.90;;;;;;10367710;28;20240;-82
2023/06/29 22:39:04;;;;;;;2.17;1.98;;;17.00;99.90;;;;;;10357988;28;20318;-83
2023/06/29 22:44:06;;;;;;;3.72;2.95;;;16.90;99.90;;;;;;10324814;28;20264;-83
2023/06/29 22:49:09;;;;;;;6.40;3.67;;;17.00;99.90;;;;;;10349685;28;20283;-84
2023/06/29 22:54:11;;;;;;;5.85;3.45;;;16.60;99.90;;;;;;10344281;28;20252;-83
2023/06/29 22:59:14;;;;;;;6.43;4.13;;;16.50;99.90;;;;;;10323660;28;20687;-82
2023/06/29 23:04:16;;;;;;;4.90;3.28;;;16.50;99.90;;;;;;10333601;28;20260;-82
2023/06/29 23:09:20;;;;;;;4.07;3.63;;;16.50;99.90;;;;;;10355749;28;20615;-82
2023/06/29 23:14:23;;;;;;;4.70;3.78;;;16.30;99.90;;;;;;10353015;28;20248;-82
2023/06/29 23:19:25;;;;;;;5.47;3.60;;;16.30;99.90;;;;;;10340668;28;20287;-82
2023/06/29 23:24:28;;;;;;;5.45;4.00;;;16.10;99.90;;;;;;10335670;28;20717;-82
2023/06/29 23:29:31;;;;;;;6.65;3.65;;;16.00;99.90;;;;;;10331611;28;20233;-82
2023/06/29 23:34:33;;;;;;;6.53;4.18;;;16.10;99.90;;;;;;10330063;28;20602;-82
2023/06/29 23:39:36;;;;;;;5.68;4.20;;;16.10;99.90;;;;;;10342413;28;20642;-82
2023/06/29 23:44:40;;;;;;;8.07;3.92;;;16.10;99.90;;;;;;10355288;28;20268;-82
2023/06/29 23:49:46;;;;;;;4.00;3.67;;;16.10;99.90;;;;;;10368907;28;20318;-82
2023/06/29 23:54:48;;;;;;;4.07;3.78;;;16.40;99.90;;;;;;10369668;28;20248;-83
2023/06/29 23:59:51;;;;;;;7.68;4.22;;;16.30;99.90;;;;;;10355523;28;20267;-82
